Terminal Aerodrome Forecast
Issued by NWS Jackson, MS

Home | Current Version | Previous Version | Text Only | Print | Product List | Glossary On
Versions: 1 2 3 4 5 6 7 8 9 10 11 12 13 14 15 16 17 18 19 20 21 22 23 24 25 26 27 28
444
FTUS44 KJAN 192330
TAFMEI
TAF
KMEI 192330Z 2000/2024 30011G18KT P6SM BKN035
     FM200200 29009KT P6SM SCT050
     FM201500 30015G25KT P6SM SKC=

USA.gov is the U.S. government's official web portal to all federal, state and local government web resources and services.